Time;durP1;ratioP1;P1;durP2;ratioP2;P2;SDS_P1;SDS_P2;PMS_P1;PMS_P2;Temp;Humidity;BMP_temperature;BMP_pressure;BME280_temperature;BME280_humidity;BME280_pressure;Samples;Min_cycle;Max_cycle;Signal;HPM_P1;HPM_P2
2022/06/29 00:00:00;;;;;;;1.48;1.13;;;;;;;22.39;50.47;97174.81;4982130;28;20237;-76
2022/06/29 00:02:25;;;;;;;1.63;1.10;;;;;;;22.35;50.95;97167.84;4992598;28;20295;-76
2022/06/29 00:04:50;;;;;;;1.05;0.80;;;;;;;22.32;51.16;97163.16;4970028;28;20182;-76
2022/06/29 00:07:16;;;;;;;2.55;1.55;;;;;;;22.28;51.39;97165.69;4980484;28;20177;-76
2022/06/29 00:09:45;;;;;;;1.65;1.20;;;;;;;22.25;50.40;97159.09;5001006;28;20174;-76
2022/06/29 00:12:11;;;;;;;3.47;1.15;;;;;;;22.28;51.46;97162.25;4971112;28;20197;-76
2022/06/29 00:14:41;;;;;;;0.90;0.90;;;;;;;22.27;51.34;97156.13;4992014;28;20182;-76
2022/06/29 00:17:11;;;;;;;2.20;1.40;;;;;;;22.17;51.68;97157.28;5001994;28;20296;-76
2022/06/29 00:19:36;;;;;;;1.95;1.05;;;;;;;22.23;50.65;97153.34;4982839;28;20201;-76
2022/06/29 00:22:02;;;;;;;1.00;1.00;;;;;;;22.20;50.74;97154.00;4987025;28;20186;-76
2022/06/29 00:24:27;;;;;;;1.58;1.38;;;;;;;22.21;51.36;97152.91;4986827;28;20181;-76
2022/06/29 00:26:53;;;;;;;2.28;1.08;;;;;;;22.20;51.25;97150.56;4977106;28;20268;-76
2022/06/29 00:29:18;;;;;;;2.83;1.30;;;;;;;22.13;49.80;97151.06;5004790;28;20246;-76
2022/06/29 00:31:43;;;;;;;1.90;1.13;;;;;;;22.15;50.66;97146.22;4973666;28;20183;-76
2022/06/29 00:34:09;;;;;;;2.38;1.48;;;;;;;22.14;50.74;97144.69;4985346;28;20679;-76
2022/06/29 00:36:34;;;;;;;2.85;1.67;;;;;;;22.14;51.47;97142.03;4982429;28;20294;-76
2022/06/29 00:39:00;;;;;;;1.98;1.45;;;;;;;22.18;51.94;97144.81;4970018;28;20672;-76
2022/06/29 00:41:25;;;;;;;1.75;1.20;;;;;;;22.19;52.89;97149.00;4989771;28;20575;-76
2022/06/29 00:43:50;;;;;;;2.45;1.20;;;;;;;22.19;52.96;97149.81;4983215;28;20213;-76
2022/06/29 00:46:16;;;;;;;1.55;1.38;;;;;;;22.19;52.62;97147.16;4995552;28;20255;-76
2022/06/29 00:48:41;;;;;;;2.65;1.30;;;;;;;22.17;53.09;97149.31;4964963;28;20631;-76
2022/06/29 00:51:10;;;;;;;1.33;1.23;;;;;;;22.05;53.26;97141.28;4974956;28;20217;-76
2022/06/29 00:53:41;;;;;;;2.22;1.55;;;;;;;22.01;53.37;97149.09;4965643;28;20159;-76
2022/06/29 00:56:09;;;;;;;1.58;1.35;;;;;;;22.00;52.72;97141.47;4981506;28;20267;-76
2022/06/29 00:58:34;;;;;;;1.40;1.17;;;;;;;22.02;52.42;97145.38;4968112;28;20783;-76
2022/06/29 01:01:03;;;;;;;1.13;1.02;;;;;;;21.92;52.94;97148.38;4979865;28;20262;-76
2022/06/29 01:03:28;;;;;;;2.75;1.30;;;;;;;21.96;53.50;97146.63;4999432;28;20205;-76
2022/06/29 01:05:54;;;;;;;1.27;1.20;;;;;;;21.92;52.90;97144.91;4985493;28;20236;-76
2022/06/29 01:08:19;;;;;;;1.60;1.02;;;;;;;21.91;52.54;97141.50;4987572;28;20269;-76
2022/06/29 01:10:44;;;;;;;1.58;1.48;;;;;;;21.90;51.53;97142.63;5003554;28;20704;-76
2022/06/29 01:13:10;;;;;;;1.30;1.20;;;;;;;21.92;51.58;97134.31;4989307;28;20184;-76
2022/06/29 01:15:36;;;;;;;1.80;1.40;;;;;;;21.92;52.45;97140.41;4983150;28;20191;-76
2022/06/29 01:18:02;;;;;;;1.27;1.10;;;;;;;21.93;52.40;97131.34;4986004;28;20292;-76
2022/06/29 01:20:27;;;;;;;1.70;1.25;;;;;;;21.94;52.95;97138.22;5001901;28;20647;-76
2022/06/29 01:22:52;;;;;;;2.58;1.20;;;;;;;21.95;53.60;97131.03;4985886;28;20572;-76
2022/06/29 01:25:18;;;;;;;2.17;1.52;;;;;;;21.90;52.96;97132.00;5004915;28;20181;-76
2022/06/29 01:27:43;;;;;;;1.40;1.10;;;;;;;21.86;53.11;97126.53;5005823;28;20174;-76
2022/06/29 01:30:09;;;;;;;1.30;1.20;;;;;;;21.78;53.90;97126.59;5005260;28;20642;-76
2022/06/29 01:32:38;;;;;;;2.72;1.30;;;;;;;21.72;54.19;97115.41;5005409;28;20216;-76
2022/06/29 01:35:08;;;;;;;1.63;1.20;;;;;;;21.63;54.53;97122.59;4989022;28;20333;-76
2022/06/29 01:37:33;;;;;;;2.08;1.98;;;;;;;21.63;55.12;97122.59;4972114;28;20139;-76
2022/06/29 01:39:58;;;;;;;1.52;1.20;;;;;;;21.57;55.07;97124.63;5003578;28;20302;-76
2022/06/29 01:42:24;;;;;;;1.67;1.48;;;;;;;21.59;54.92;97111.06;5004972;28;20657;-76
2022/06/29 01:44:49;;;;;;;1.98;1.30;;;;;;;21.63;55.12;97117.31;5004351;28;20275;-76
2022/06/29 01:47:15;;;;;;;1.70;1.27;;;;;;;21.62;55.81;97111.22;5006815;28;20383;-76
2022/06/29 01:49:40;;;;;;;3.00;1.65;;;;;;;21.60;56.04;97125.88;4999948;28;20607;-76
2022/06/29 01:52:06;;;;;;;2.65;1.38;;;;;;;21.61;55.79;97116.81;4975122;28;20248;-76
2022/06/29 01:54:31;;;;;;;1.95;1.35;;;;;;;21.58;56.07;97112.97;5004613;28;20194;-76
2022/06/29 01:56:56;;;;;;;2.53;1.90;;;;;;;21.58;55.65;97114.84;5000784;28;20286;-76
2022/06/29 01:59:22;;;;;;;2.00;1.30;;;;;;;21.57;55.03;97107.97;4972866;28;20197;-76
2022/06/29 02:01:48;;;;;;;1.83;1.33;;;;;;;21.57;55.30;97108.75;4995088;28;20283;-76
2022/06/29 02:04:14;;;;;;;1.60;1.40;;;;;;;21.53;55.62;97102.53;4989131;28;20642;-76
2022/06/29 02:06:40;;;;;;;2.40;1.35;;;;;;;21.45;55.28;97095.34;4991425;28;20216;-76
2022/06/29 02:09:05;;;;;;;1.60;1.40;;;;;;;21.43;55.23;97090.38;4969190;28;20236;-76
2022/06/29 02:11:30;;;;;;;1.48;1.38;;;;;;;21.46;55.65;97097.72;4979195;28;20181;-76
2022/06/29 02:13:56;;;;;;;2.30;1.23;;;;;;;21.43;56.29;97089.59;4975700;28;20243;-76
2022/06/29 02:16:21;;;;;;;2.35;1.60;;;;;;;21.43;56.07;97094.91;4991184;28;20301;-76
2022/06/29 02:18:47;;;;;;;2.05;1.20;;;;;;;21.42;56.25;97085.38;4990821;28;20394;-76
2022/06/29 02:21:12;;;;;;;2.08;1.88;;;;;;;21.40;56.80;97084.94;4984623;28;20288;-76
2022/06/29 02:23:37;;;;;;;1.50;1.35;;;;;;;21.37;57.04;97077.63;4984646;28;20341;-76
2022/06/29 02:26:03;;;;;;;2.25;1.40;;;;;;;21.36;56.44;97079.50;4971524;28;20291;-76
2022/06/29 02:28:28;;;;;;;2.17;1.50;;;;;;;21.38;56.46;97077.31;4986182;28;20696;-76
2022/06/29 02:36:22;;;;;;;2.50;1.25;;;;;;;21.34;55.29;97073.75;4999764;28;20211;-76
2022/06/29 02:38:47;;;;;;;2.00;1.33;;;;;;;21.31;55.28;97079.66;5001619;28;20194;-76
2022/06/29 02:41:12;;;;;;;2.65;1.33;;;;;;;21.29;55.06;97076.56;5004429;28;20186;-76
2022/06/29 02:43:38;;;;;;;1.63;1.50;;;;;;;21.27;55.13;97073.47;4967266;28;20275;-76
2022/06/29 02:46:03;;;;;;;1.65;1.52;;;;;;;21.24;55.64;97079.38;4962677;28;20268;-76
2022/06/29 02:48:29;;;;;;;1.52;1.33;;;;;;;21.22;55.20;97079.69;5000259;28;20625;-76
2022/06/29 02:50:55;;;;;;;1.58;1.20;;;;;;;21.21;55.20;97072.84;5004085;28;20254;-76
2022/06/29 02:53:20;;;;;;;1.80;1.45;;;;;;;21.20;55.25;97075.78;5004752;28;20716;-76
2022/06/29 02:55:45;;;;;;;1.70;1.23;;;;;;;21.21;55.26;97072.06;4996863;28;20238;-77
2022/06/29 02:58:11;;;;;;;1.88;1.40;;;;;;;21.17;55.30;97076.44;4998216;28;20239;-76
2022/06/29 03:00:36;;;;;;;2.78;1.45;;;;;;;21.09;55.56;97076.13;5003387;28;20301;-76
2022/06/29 03:03:01;;;;;;;2.55;1.50;;;;;;;21.03;56.04;97068.69;4987942;28;20643;-76
2022/06/29 03:05:27;;;;;;;2.25;1.40;;;;;;;21.02;56.80;97073.19;4984144;28;20221;-76
2022/06/29 03:07:52;;;;;;;3.28;1.85;;;;;;;20.97;56.85;97068.06;4985453;28;20147;-76
2022/06/29 03:10:18;;;;;;;1.40;1.30;;;;;;;20.91;56.27;97072.75;4986067;28;20190;-76
2022/06/29 03:12:43;;;;;;;3.17;1.73;;;;;;;20.84;55.81;97071.69;4984353;28;20162;-76
2022/06/29 03:15:09;;;;;;;1.40;1.27;;;;;;;20.72;54.84;97065.16;4981153;28;20301;-76
2022/06/29 03:17:34;;;;;;;2.13;1.83;;;;;;;20.69;55.67;97065.00;4988433;28;20170;-76
2022/06/29 03:20:01;;;;;;;1.95;1.70;;;;;;;20.65;56.49;97064.06;5007834;28;20205;-76
2022/06/29 03:22:27;;;;;;;2.08;1.20;;;;;;;20.65;56.67;97069.34;4990790;28;20176;-76
2022/06/29 03:24:52;;;;;;;2.05;1.58;;;;;;;20.65;57.83;97072.78;4997639;28;20210;-76
2022/06/29 03:27:18;;;;;;;1.58;1.45;;;;;;;20.63;58.28;97066.25;4988042;28;20234;-76
2022/06/29 03:29:43;;;;;;;1.60;1.50;;;;;;;20.61;58.50;97069.16;4966747;28;20635;-76
2022/06/29 03:32:09;;;;;;;2.58;1.80;;;;;;;20.56;58.46;97067.47;4973663;28;20263;-76
2022/06/29 03:34:34;;;;;;;2.13;1.33;;;;;;;20.53;58.42;97062.03;4993703;28;20282;-76
2022/06/29 03:36:59;;;;;;;1.60;1.50;;;;;;;20.49;58.77;97066.38;4986154;28;20296;-76
2022/06/29 03:39:25;;;;;;;2.22;2.03;;;;;;;20.43;58.42;97059.69;4993633;28;20727;-76
2022/06/29 03:41:50;;;;;;;1.52;1.25;;;;;;;20.42;57.84;97061.53;5003070;28;20213;-76
2022/06/29 03:44:16;;;;;;;1.75;1.63;;;;;;;20.45;58.52;97065.44;4986866;28;20635;-76
2022/06/29 03:46:41;;;;;;;1.60;1.50;;;;;;;20.42;57.98;97066.06;4990856;28;20189;-76
2022/06/29 03:49:06;;;;;;;2.42;1.48;;;;;;;20.33;58.66;97074.00;5001510;28;20258;-76
2022/06/29 03:51:33;;;;;;;2.78;1.60;;;;;;;20.37;58.69;97082.84;4987665;28;20208;-76
2022/06/29 03:53:58;;;;;;;3.63;1.80;;;;;;;20.35;58.74;97079.75;4989909;28;20791;-76
2022/06/29 03:56:24;;;;;;;1.48;1.38;;;;;;;20.40;58.17;97072.44;4992540;28;20268;-76
2022/06/29 03:58:49;;;;;;;1.67;1.58;;;;;;;20.49;58.70;97074.31;5006869;28;20633;-76
2022/06/29 04:01:14;;;;;;;2.63;1.50;;;;;;;20.51;58.94;97077.41;4970524;28;20361;-76
2022/06/29 04:03:40;;;;;;;2.17;1.75;;;;;;;20.47;58.84;97087.84;4970642;28;20186;-76
2022/06/29 04:06:06;;;;;;;2.65;1.90;;;;;;;20.47;58.53;97068.56;4987593;28;20330;-76
2022/06/29 04:08:31;;;;;;;1.50;1.40;;;;;;;20.43;57.87;97071.03;5007004;28;20100;-76
2022/06/29 04:10:57;;;;;;;1.70;1.60;;;;;;;20.47;58.15;97064.03;4973730;28;20212;-76
2022/06/29 04:13:22;;;;;;;3.15;1.70;;;;;;;20.53;58.99;97067.31;5003183;28;20197;-76
2022/06/29 04:15:48;;;;;;;3.25;1.58;;;;;;;20.55;59.28;97070.44;5007366;28;20321;-76
2022/06/29 04:18:14;;;;;;;1.42;1.33;;;;;;;20.55;58.80;97065.91;4973587;28;20361;-76
2022/06/29 04:23:24;;;;;;;2.00;1.80;;;;;;;20.54;59.34;97066.97;4992993;28;20707;-76
2022/06/29 04:25:49;;;;;;;3.08;1.73;;;;;;;20.55;58.83;97062.50;4973011;28;20267;-76
2022/06/29 04:28:14;;;;;;;2.00;1.90;;;;;;;20.57;58.99;97060.31;4985929;28;20198;-76
2022/06/29 04:30:40;;;;;;;1.63;1.40;;;;;;;20.59;57.75;97061.53;4995996;28;20361;-76
2022/06/29 04:33:07;;;;;;;2.13;1.52;;;;;;;20.62;57.65;97051.44;5006674;28;20212;-76
2022/06/29 04:35:33;;;;;;;1.63;1.42;;;;;;;20.64;57.70;97057.22;5005302;28;20167;-76
2022/06/29 04:37:58;;;;;;;1.80;1.52;;;;;;;20.62;58.22;97062.03;4984033;28;20728;-76
2022/06/29 04:40:24;;;;;;;3.42;1.33;;;;;;;20.63;58.20;97060.94;4996928;28;20205;-76
2022/06/29 04:42:50;;;;;;;2.42;1.60;;;;;;;20.63;58.79;97056.47;5007699;28;20282;-76
2022/06/29 04:48:00;;;;;;;2.00;1.58;;;;;;;20.64;59.48;97054.56;5006294;28;20275;-76
2022/06/29 04:50:26;;;;;;;1.70;1.60;;;;;;;20.66;59.83;97057.69;4999571;28;20201;-76
2022/06/29 04:52:52;;;;;;;1.85;1.55;;;;;;;20.64;60.19;97058.00;4993100;28;20285;-76
2022/06/29 04:55:17;;;;;;;1.77;1.67;;;;;;;20.59;59.53;97052.84;4991194;28;20204;-76
2022/06/29 04:57:43;;;;;;;2.80;1.75;;;;;;;20.58;59.44;97044.13;5005768;28;20643;-76
2022/06/29 05:00:09;;;;;;;2.47;1.67;;;;;;;20.54;59.29;97045.81;4988695;28;20253;-76
2022/06/29 05:02:34;;;;;;;2.50;1.55;;;;;;;20.48;59.45;97041.78;5005671;28;20200;-76
2022/06/29 05:04:59;;;;;;;2.85;1.70;;;;;;;20.39;59.32;97041.00;4970356;28;20703;-76
2022/06/29 05:07:25;;;;;;;4.50;2.08;;;;;;;20.36;59.48;97045.06;4981139;28;20639;-76
2022/06/29 05:09:50;;;;;;;1.92;1.27;;;;;;;20.35;59.44;97048.00;5004222;28;20314;-76
2022/06/29 05:12:15;;;;;;;2.13;1.83;;;;;;;20.33;59.26;97044.91;5000890;28;20158;-76
2022/06/29 05:14:41;;;;;;;3.00;1.42;;;;;;;20.36;58.88;97044.28;5005150;28;20162;-76
2022/06/29 05:17:06;;;;;;;2.42;1.67;;;;;;;20.36;58.65;97041.66;5000660;28;20210;-76
2022/06/29 05:19:31;;;;;;;1.95;1.45;;;;;;;20.36;58.77;97042.41;4997956;28;20193;-76
2022/06/29 05:21:57;;;;;;;2.92;1.88;;;;;;;20.41;58.61;97046.78;5004412;28;20293;-76
2022/06/29 05:24:22;;;;;;;3.80;2.25;;;;;;;20.42;58.98;97044.91;5004897;28;20181;-76
2022/06/29 05:26:48;;;;;;;2.20;1.95;;;;;;;20.44;59.06;97045.38;5004716;28;20266;-76
2022/06/29 05:29:13;;;;;;;2.08;1.90;;;;;;;20.48;60.35;97051.59;4969793;28;20264;-76
2022/06/29 05:31:38;;;;;;;2.13;1.70;;;;;;;20.53;60.52;97052.22;4984677;28;20190;-76
2022/06/29 05:34:04;;;;;;;2.40;1.67;;;;;;;20.54;60.75;97053.00;4992520;28;20298;-76
2022/06/29 05:36:29;;;;;;;2.53;1.45;;;;;;;20.57;60.94;97047.84;4976511;28;20555;-76
2022/06/29 05:38:54;;;;;;;2.63;1.75;;;;;;;20.64;60.82;97050.06;4961063;28;20381;-76
2022/06/29 05:41:20;;;;;;;2.08;1.70;;;;;;;20.73;60.21;97052.69;4985520;28;20649;-76
2022/06/29 05:43:49;;;;;;;1.92;1.77;;;;;;;20.83;59.67;97054.25;4973476;28;20205;-76
2022/06/29 05:46:15;;;;;;;2.58;1.88;;;;;;;20.92;59.20;97047.84;5006487;28;20174;-76
2022/06/29 05:48:40;;;;;;;2.55;1.60;;;;;;;21.04;58.05;97049.84;4986014;28;20247;-76
2022/06/29 05:51:06;;;;;;;1.98;1.60;;;;;;;21.20;57.35;97050.13;5001670;28;20188;-76
2022/06/29 05:53:31;;;;;;;2.63;2.05;;;;;;;21.31;57.17;97043.34;4993097;28;20198;-76
2022/06/29 05:55:56;;;;;;;1.88;1.65;;;;;;;21.45;56.92;97045.78;4998260;28;20181;-76
2022/06/29 05:58:23;;;;;;;2.10;1.50;;;;;;;21.61;55.91;97045.28;4984515;28;20256;-76
2022/06/29 06:00:48;;;;;;;1.95;1.67;;;;;;;21.70;53.70;97046.03;4964925;28;20201;-76
2022/06/29 06:03:13;;;;;;;1.55;1.25;;;;;;;21.79;52.17;97046.75;4992280;28;20263;-76
2022/06/29 06:05:39;;;;;;;2.17;1.60;;;;;;;21.88;51.96;97044.84;4988299;28;20175;-76
2022/06/29 06:08:04;;;;;;;2.13;1.58;;;;;;;21.96;51.15;97045.13;4996545;28;20685;-76
2022/06/29 06:10:30;;;;;;;4.45;1.33;;;;;;;22.04;50.53;97044.28;4972155;28;20266;-76
2022/06/29 06:12:55;;;;;;;2.22;1.40;;;;;;;22.05;50.00;97045.81;4998925;28;20281;-76
2022/06/29 06:15:20;;;;;;;1.65;1.17;;;;;;;22.13;49.29;97049.53;4986957;28;20302;-76
2022/06/29 06:17:46;;;;;;;1.20;1.10;;;;;;;22.26;48.34;97046.63;4970829;28;20366;-76
2022/06/29 06:20:12;;;;;;;1.90;1.40;;;;;;;22.40;49.64;97058.88;4985082;28;20272;-76
2022/06/29 06:22:38;;;;;;;1.30;1.20;;;;;;;22.53;47.96;97046.44;4992262;28;20298;-76
2022/06/29 06:25:03;;;;;;;2.70;1.55;;;;;;;22.63;46.70;97048.69;4985893;28;20213;-76
2022/06/29 06:27:29;;;;;;;1.35;1.25;;;;;;;22.88;47.51;97048.78;4996294;28;20230;-76
2022/06/29 06:29:54;;;;;;;1.90;1.17;;;;;;;23.05;45.31;97050.47;4978965;28;20316;-76
2022/06/29 06:32:19;;;;;;;1.50;1.40;;;;;;;23.33;45.63;97051.44;4992907;28;20588;-75
2022/06/29 06:34:45;;;;;;;2.30;1.48;;;;;;;23.69;46.30;97054.44;4976320;28;20255;-75
2022/06/29 06:37:11;;;;;;;2.90;1.75;;;;;;;23.91;45.16;97047.94;4981794;28;20193;-75
2022/06/29 06:39:36;;;;;;;2.28;1.38;;;;;;;24.28;43.05;97056.63;4994197;28;20262;-75
2022/06/29 06:42:02;;;;;;;1.25;1.13;;;;;;;24.42;43.27;97055.44;4982338;28;20223;-75
2022/06/29 06:44:28;;;;;;;1.80;1.40;;;;;;;24.74;43.57;97059.03;4992367;28;20201;-75
2022/06/29 06:46:53;;;;;;;1.75;1.30;;;;;;;24.88;42.01;97057.84;4965172;28;20151;-75
2022/06/29 06:49:24;;;;;;;1.60;1.42;;;;;;;24.95;41.78;97055.38;4995432;28;20286;-75
2022/06/29 06:51:50;;;;;;;1.92;1.67;;;;;;;25.06;41.87;97061.75;5004788;28;20172;-75
2022/06/29 06:54:16;;;;;;;1.52;1.40;;;;;;;25.20;43.91;97064.00;4993218;28;20347;-75
2022/06/29 06:56:41;;;;;;;2.22;1.60;;;;;;;25.48;42.00;97055.16;4994571;28;20137;-75
2022/06/29 06:59:07;;;;;;;1.33;1.20;;;;;;;25.56;41.54;97059.56;4994102;28;20688;-76
2022/06/29 07:01:32;;;;;;;1.60;1.00;;;;;;;25.55;41.56;97056.13;4983566;28;20202;-75
2022/06/29 07:03:59;;;;;;;1.20;1.10;;;;;;;25.54;41.28;97054.56;4968152;28;20179;-76
2022/06/29 07:06:24;;;;;;;1.77;1.50;;;;;;;25.45;41.88;97056.66;4977709;28;20748;-76
2022/06/29 07:08:50;;;;;;;1.70;1.20;;;;;;;25.44;41.69;97057.75;4975185;28;20253;-75
2022/06/29 07:11:15;;;;;;;2.58;1.35;;;;;;;25.48;42.95;97060.50;4978312;28;20239;-75
2022/06/29 07:13:41;;;;;;;1.73;1.45;;;;;;;25.45;41.75;97056.66;4985174;28;20279;-75
2022/06/29 07:16:06;;;;;;;3.78;2.10;;;;;;;25.41;42.46;97058.44;4990449;28;20198;-75
2022/06/29 07:18:33;;;;;;;2.03;1.40;;;;;;;25.48;42.26;97061.31;5001800;28;20677;-75
2022/06/29 07:20:59;;;;;;;1.88;1.77;;;;;;;25.72;41.74;97057.66;5003349;28;20190;-76
2022/06/29 07:23:25;;;;;;;1.73;1.63;;;;;;;25.83;43.14;97065.91;5003498;28;20642;-75
2022/06/29 07:25:50;;;;;;;1.67;1.35;;;;;;;25.95;43.45;97063.16;4967955;28;20155;-75
2022/06/29 07:28:15;;;;;;;1.60;1.50;;;;;;;25.88;42.03;97051.53;4976756;28;20682;-75
2022/06/29 07:30:41;;;;;;;1.90;1.80;;;;;;;26.02;42.41;97051.09;4967534;28;20190;-75
2022/06/29 07:33:09;;;;;;;1.65;1.17;;;;;;;25.95;42.46;97052.47;4969588;28;20291;-75
2022/06/29 07:35:35;;;;;;;1.85;1.30;;;;;;;26.14;42.26;97042.97;4978983;28;20197;-75
2022/06/29 07:38:00;;;;;;;1.50;1.40;;;;;;;26.30;41.98;97050.91;4973398;28;20567;-76
2022/06/29 07:40:26;;;;;;;2.42;1.60;;;;;;;26.58;42.99;97052.59;5002934;28;20154;-76
2022/06/29 07:42:51;;;;;;;1.60;1.50;;;;;;;26.71;41.82;97054.00;4966496;28;20267;-76
2022/06/29 07:45:16;;;;;;;1.60;1.50;;;;;;;26.80;41.48;97051.13;4970771;28;20263;-75
2022/06/29 07:47:42;;;;;;;1.48;1.38;;;;;;;26.72;40.85;97045.66;4992527;28;20803;-76
2022/06/29 07:50:11;;;;;;;3.22;1.42;;;;;;;26.72;40.42;97050.22;4970887;28;20212;-76
2022/06/29 07:52:37;;;;;;;1.40;1.30;;;;;;;27.15;39.22;97044.88;4994934;28;20270;-76
2022/06/29 07:55:03;;;;;;;2.03;1.70;;;;;;;27.36;39.14;97047.91;4995716;28;20281;-76
2022/06/29 07:57:28;;;;;;;2.40;1.73;;;;;;;27.36;39.81;97050.56;4982365;28;20209;-76
2022/06/29 07:59:53;;;;;;;2.42;2.22;;;;;;;27.52;39.57;97036.31;4982192;28;20311;-76
2022/06/29 08:02:19;;;;;;;1.88;1.77;;;;;;;27.90;37.96;97039.91;4982407;28;20300;-77
2022/06/29 08:04:44;;;;;;;1.75;1.65;;;;;;;28.01;38.09;97038.19;4986145;28;20208;-76
2022/06/29 08:07:10;;;;;;;1.40;1.27;;;;;;;28.16;39.42;97039.91;4978491;28;20202;-76
2022/06/29 08:09:35;;;;;;;1.55;1.45;;;;;;;28.48;39.27;97042.19;4992078;28;20441;-76
2022/06/29 08:12:02;;;;;;;1.95;1.85;;;;;;;28.76;36.85;97041.75;4985662;28;20209;-77
2022/06/29 08:14:27;;;;;;;2.45;1.67;;;;;;;28.95;37.88;97043.47;4986655;28;20205;-77
2022/06/29 08:16:53;;;;;;;2.13;1.92;;;;;;;29.13;35.94;97037.50;4996285;28;20650;-77
2022/06/29 08:19:18;;;;;;;2.85;1.95;;;;;;;29.23;36.00;97026.13;4985248;28;20374;-77
2022/06/29 08:21:43;;;;;;;2.00;1.80;;;;;;;29.27;35.39;97034.19;4989144;28;20063;-77
2022/06/29 08:24:09;;;;;;;2.35;1.63;;;;;;;29.41;35.20;97037.00;4971312;28;20192;-78
2022/06/29 08:26:34;;;;;;;2.08;1.88;;;;;;;29.32;36.09;97033.84;4989328;28;20196;-78
2022/06/29 08:29:00;;;;;;;2.58;2.08;;;;;;;29.33;36.23;97038.06;5005190;28;20189;-77
2022/06/29 08:31:25;;;;;;;2.35;2.13;;;;;;;29.19;36.43;97046.78;4983009;28;20258;-78
2022/06/29 08:33:50;;;;;;;2.40;2.20;;;;;;;29.03;36.58;97047.00;5002396;28;20196;-78
2022/06/29 08:36:16;;;;;;;2.72;2.00;;;;;;;28.89;37.13;97044.16;5005962;28;20180;-78
2022/06/29 08:38:42;;;;;;;3.40;2.40;;;;;;;28.63;37.23;97047.75;4970966;28;20177;-78
2022/06/29 08:41:09;;;;;;;5.00;2.63;;;;;;;28.55;37.31;97041.53;4982428;28;20231;-78
2022/06/29 08:43:34;;;;;;;1.80;1.70;;;;;;;28.36;38.18;97048.56;4990276;28;20195;-78
2022/06/29 08:46:00;;;;;;;2.50;2.40;;;;;;;28.25;39.03;97046.91;4985427;28;20393;-78
2022/06/29 08:48:25;;;;;;;2.85;2.20;;;;;;;28.23;38.84;97046.50;5006397;28;20173;-78
2022/06/29 08:50:55;;;;;;;2.45;2.10;;;;;;;28.09;38.98;97047.84;4990389;28;20192;-78
2022/06/29 08:53:21;;;;;;;3.50;2.83;;;;;;;28.01;39.67;97052.31;4985236;28;20197;-78
2022/06/29 08:55:48;;;;;;;2.50;2.30;;;;;;;27.91;41.43;97049.47;4981890;28;20631;-78
2022/06/29 08:58:18;;;;;;;2.10;1.90;;;;;;;27.76;41.50;97043.94;4993427;28;20639;-77
2022/06/29 09:00:43;;;;;;;3.83;2.40;;;;;;;27.89;40.88;97038.38;4998856;28;20717;-77
2022/06/29 09:03:10;;;;;;;2.30;2.10;;;;;;;28.16;40.79;97042.56;5002653;28;20275;-78
2022/06/29 09:05:36;;;;;;;3.67;2.60;;;;;;;28.21;40.62;97046.84;4987705;28;20327;-78
2022/06/29 09:08:01;;;;;;;2.58;2.38;;;;;;;28.12;41.95;97047.13;4964394;28;20209;-78
2022/06/29 09:10:29;;;;;;;2.20;2.03;;;;;;;28.24;40.93;97053.38;4996365;28;20157;-78
2022/06/29 09:12:57;;;;;;;2.63;2.38;;;;;;;28.35;41.33;97052.38;4998701;28;20853;-78
2022/06/29 09:15:34;;;;;;;4.10;2.38;;;;;;;28.26;40.70;97051.88;4992512;28;20193;-78
2022/06/29 09:18:01;;;;;;;2.47;2.08;;;;;;;28.37;41.43;97054.69;4979204;28;20171;-78
2022/06/29 09:20:42;;;;;;;3.45;2.63;;;;;;;28.20;40.09;97051.41;4985686;28;20619;-78
2022/06/29 09:23:09;;;;;;;2.35;2.08;;;;;;;28.27;40.59;97052.66;4971014;28;20178;-78
2022/06/29 09:25:39;;;;;;;2.90;2.70;;;;;;;28.21;40.48;97055.66;4967200;28;20173;-78
2022/06/29 09:28:17;;;;;;;2.50;2.40;;;;;;;28.13;41.17;97059.38;4997004;28;20278;-78
2022/06/29 09:30:43;;;;;;;2.50;2.30;;;;;;;28.25;42.05;97055.69;4995726;28;20233;-78
2022/06/29 09:33:08;;;;;;;2.58;2.38;;;;;;;28.29;42.28;97047.69;4994818;28;20212;-78
2022/06/29 09:35:34;;;;;;;2.67;2.40;;;;;;;28.36;41.91;97050.47;4980368;28;20642;-78
2022/06/29 09:38:23;;;;;;;2.70;2.50;;;;;;;28.41;42.49;97047.47;4984281;28;20264;-78
2022/06/29 09:41:02;;;;;;;2.70;2.50;;;;;;;28.44;40.95;97062.81;4977902;28;20209;-78
2022/06/29 09:43:32;;;;;;;3.20;2.80;;;;;;;28.44;41.63;97052.09;4997905;28;20190;-78
2022/06/29 09:46:00;;;;;;;2.75;2.55;;;;;;;28.57;40.98;97048.06;4985224;28;20281;-78
2022/06/29 09:48:26;;;;;;;3.42;3.10;;;;;;;28.62;41.41;97052.34;4986653;28;20266;-78
2022/06/29 09:50:52;;;;;;;2.67;2.47;;;;;;;28.71;44.08;97049.38;4980342;28;20184;-78
2022/06/29 09:53:19;;;;;;;4.30;3.58;;;;;;;28.75;40.70;97050.16;4995177;28;20180;-78
2022/06/29 09:55:48;;;;;;;2.90;2.70;;;;;;;28.78;40.55;97054.78;4981327;28;20218;-78
2022/06/29 09:58:14;;;;;;;3.80;2.70;;;;;;;28.68;40.73;97058.88;4997220;28;20205;-78
2022/06/29 10:03:24;;;;;;;2.60;2.50;;;;;;;28.70;39.71;97055.84;4993002;28;20209;-78
2022/06/29 10:05:58;;;;;;;3.13;2.55;;;;;;;28.66;41.19;97055.03;4978767;28;20159;-78
2022/06/29 10:08:24;;;;;;;;;;;;;;;28.49;40.51;97057.13;4993198;28;20242;-78
2022/06/29 10:10:53;;;;;;;2.33;2.15;;;;;;;28.64;40.66;97057.34;4991956;28;20152;-78
2022/06/29 10:13:42;;;;;;;2.30;2.10;;;;;;;28.82;39.24;97055.59;4991084;28;20273;-78
2022/06/29 10:16:36;;;;;;;2.50;2.30;;;;;;;28.78;40.39;97054.78;4997694;28;20311;-78
2022/06/29 10:19:09;;;;;;;2.70;2.50;;;;;;;28.77;39.33;97039.84;4993031;28;20208;-78
2022/06/29 10:21:34;;;;;;;2.55;2.35;;;;;;;29.08;38.62;97051.22;4998351;28;20631;-78
2022/06/29 10:24:03;;;;;;;2.60;2.40;;;;;;;29.06;38.34;97043.56;4995823;28;20158;-77
2022/06/29 10:26:32;;;;;;;2.67;2.22;;;;;;;29.12;38.99;97047.47;4984720;28;20638;-78
2022/06/29 10:29:10;;;;;;;3.05;2.65;;;;;;;29.30;38.60;97034.25;4996694;28;20653;-78
2022/06/29 10:31:53;;;;;;;2.50;2.30;;;;;;;29.81;38.97;97042.66;4977313;28;20216;-78
2022/06/29 10:34:28;;;;;;;2.53;2.25;;;;;;;30.53;36.09;97033.03;5002770;28;20140;-78
2022/06/29 10:37:02;;;;;;;2.63;2.35;;;;;;;30.54;37.51;97039.19;5000022;28;20235;-78
2022/06/29 10:39:37;;;;;;;;;;;;;;;30.37;37.43;97041.41;5001087;28;20365;-78
2022/06/29 10:45:02;;;;;;;2.60;2.40;;;;;;;30.16;40.07;97035.91;4988728;28;20300;-78
2022/06/29 10:47:29;;;;;;;2.70;2.50;;;;;;;30.50;36.85;97027.63;4995994;28;20208;-78
2022/06/29 10:50:13;;;;;;;2.75;2.65;;;;;;;30.18;37.59;97028.28;4999752;28;20280;-78
2022/06/29 10:52:39;;;;;;;3.28;2.90;;;;;;;30.13;36.44;97026.72;4995402;28;20239;-78
2022/06/29 10:55:05;;;;;;;2.95;2.75;;;;;;;30.21;35.95;97030.19;4975348;28;20434;-77
2022/06/29 10:57:33;;;;;;;3.20;3.00;;;;;;;30.01;37.26;97029.72;4989215;28;20697;-78
2022/06/29 10:59:58;;;;;;;2.80;2.60;;;;;;;29.85;37.17;97028.13;4977512;28;20171;-78
2022/06/29 11:02:24;;;;;;;2.83;2.63;;;;;;;29.54;38.30;97029.41;4996751;28;20209;-77
2022/06/29 11:04:49;;;;;;;2.88;2.67;;;;;;;29.50;37.96;97025.94;4993668;28;20644;-77
2022/06/29 11:12:50;;;;;;;3.15;2.95;;;;;;;28.92;40.40;97033.47;4991704;28;20218;-77
2022/06/29 11:15:44;;;;;;;5.50;2.80;;;;;;;28.94;39.43;97027.75;4981188;28;20275;-78
2022/06/29 11:18:13;;;;;;;3.15;2.95;;;;;;;28.91;38.81;97025.84;4995205;28;20245;-78
2022/06/29 11:20:40;;;;;;;3.30;2.97;;;;;;;29.06;39.25;97029.41;4999781;28;20619;-78
2022/06/29 11:23:13;;;;;;;3.35;3.15;;;;;;;28.82;42.09;97028.03;4993401;28;20588;-78
2022/06/29 11:25:40;;;;;;;3.47;3.17;;;;;;;28.97;40.08;97031.63;4994683;28;20194;-78
2022/06/29 11:28:06;;;;;;;3.00;2.80;;;;;;;28.87;40.06;97033.06;4980111;28;20171;-78
2022/06/29 11:30:32;;;;;;;3.15;2.90;;;;;;;28.75;40.08;97034.09;4976379;28;20220;-78
2022/06/29 11:32:57;;;;;;;3.05;2.83;;;;;;;28.84;40.68;97036.47;4992886;28;20389;-78
2022/06/29 11:35:25;;;;;;;3.58;2.90;;;;;;;28.90;40.08;97029.63;4996691;28;20135;-78
2022/06/29 11:37:51;;;;;;;4.35;2.45;;;;;;;28.97;38.46;97028.94;4997660;28;20314;-78
2022/06/29 11:40:19;;;;;;;3.10;2.80;;;;;;;29.00;38.98;97025.53;4999460;28;20789;-78
2022/06/29 11:45:58;;;;;;;2.90;2.70;;;;;;;28.65;40.04;97024.03;4996469;28;20692;-78
2022/06/29 11:48:24;;;;;;;2.65;2.50;;;;;;;29.08;39.85;97013.69;5002720;28;20588;-78
2022/06/29 11:50:58;;;;;;;3.20;2.40;;;;;;;29.06;39.99;97013.31;4999277;28;20163;-78
2022/06/29 11:53:56;;;;;;;3.05;2.83;;;;;;;29.27;39.18;97005.47;5000952;28;20146;-78
2022/06/29 11:56:27;;;;;;;4.05;2.75;;;;;;;29.06;41.71;97003.34;4969952;28;20282;-77